Virginia Beach, VA (23453)

3:58 PM EST on February 10, 2016 (GMT -0500)
Christopher Farms | | Change Station
CLOSE
Current Station
Personal Weather Station
Location: Virginia Beach, VA
Elevation: 33 ft
Nearby Weather Stations

Elev 33 ft 36.76 °N, 76.06 °W | Updated 16 seconds ago

Clear
Clear
43.9 °F
Feels Like 44 °F
N
1.8
Wind Variable Wind from West
Gusts 2.5 mph

Today
High -- | Low -- °F
--% Chance of Precip.
Yesterday
High -- | Low -- °F
Precip. -- in
Pressure 29.80 in
Visibility 10.0 miles
Clouds Clear
Windchill 44 °F
Dew Point 14 °F
Humidity 29%
Rainfall 0.00 in
Snow Depth Not available.
6:58 AM 5:38 PM
Waxing Crescent, 7% visible
METAR KNTU 101956Z 24010G16KT 10SM CLR 08/M08 A2979 RMK AO2 SLP090 T00831083
Pressure 29.80 in
Visibility 10.0 miles
Clouds Clear
Windchill 44 °F
Dew Point 14 °F
Humidity 29%
Rainfall 0.00 in
Snow Depth Not available.
6:58 AM 5:38 PM
Waxing Crescent, 7% visible
METAR KNTU 101956Z 24010G16KT 10SM CLR 08/M08 A2979 RMK AO2 SLP090 T00831083

10-Day Weather Forecast

Almanac

Astronomy

Feb. 10, 2016 Rise Set
Actual Time
Civil Twilight
Nautical Twilight
Astronomical Twilight
Moon
Length of Visible Light
Length of Day
Tomorrow will be .
, % of the Moon is Illuminated

Today's Extremes

State Highs State Lows

Community

WunderPhotos

Upload Photos

1,891,945 photos uploaded!

WunderBlog® & News

Nearby

Air Quality

  Air Quality AQ Index Pollutant
Not available.

Snow Depth

Station Depth Elevation

Earthquake Activity

City Distance Mag. Time & Date
Minimum magnitude displayed is 2.5.

Coastal Water Temperatures

Place Temperature

Stations

Nearby Weather Stations

Station Location Temp. Windchill Dew Point Humidity Wind Precip. Elev Updated Type
                   

Watches & Warnings

There are currently no watches in effect.